createdAt,value
2019-05-01T00:03:33.999Z,29.90
2019-05-01T00:08:33.946Z,35.53
2019-05-01T00:13:33.674Z,29.77
2019-05-01T00:18:33.410Z,30.53
2019-05-01T00:23:33.078Z,33.30
2019-05-01T00:28:32.797Z,38.93
2019-05-01T00:33:32.456Z,39.60
2019-05-01T00:38:32.090Z,42.67
2019-05-01T00:43:31.752Z,43.57
2019-05-01T00:48:32.712Z,32.03
2019-05-01T00:53:32.429Z,37.87
2019-05-01T00:58:43.568Z,38.70
2019-05-01T01:03:43.427Z,33.27
2019-05-01T01:08:43.174Z,38.40
2019-05-01T01:13:42.830Z,40.83
2019-05-01T01:18:42.826Z,34.40
2019-05-01T01:23:43.103Z,40.40
2019-05-01T01:28:42.779Z,35.53
2019-05-01T01:33:42.411Z,31.80
2019-05-01T01:38:42.482Z,30.37
2019-05-01T01:44:14.659Z,35.17
2019-05-01T01:49:15.111Z,32.67
2019-05-01T01:54:14.918Z,37.87
2019-05-01T01:59:14.842Z,32.43
2019-05-01T02:04:33.675Z,36.47
2019-05-01T02:09:33.415Z,30.97
2019-05-01T02:14:33.142Z,34.37
2019-05-01T02:19:32.906Z,35.37
2019-05-01T02:24:32.867Z,34.43
2019-05-01T02:29:39.221Z,32.03
2019-05-01T02:34:39.826Z,32.23
2019-05-01T02:39:39.838Z,34.30
2019-05-01T02:44:46.843Z,28.87
2019-05-01T02:49:52.399Z,41.00
2019-05-01T02:54:54.560Z,34.10
2019-05-01T02:59:56.032Z,21.07
2019-05-01T03:04:56.939Z,20.60
2019-05-01T03:09:58.023Z,33.00
2019-05-01T03:15:00.892Z,31.70
2019-05-01T03:20:21.164Z,27.80
2019-05-01T03:25:20.991Z,27.90
2019-05-01T03:30:20.796Z,21.73
2019-05-01T03:35:20.555Z,25.60
2019-05-01T03:40:21.067Z,23.07
2019-05-01T03:45:21.188Z,24.03
2019-05-01T03:50:20.991Z,27.07
2019-05-01T03:55:20.715Z,27.53
2019-05-01T04:00:29.099Z,25.90
2019-05-01T04:05:29.292Z,22.47
2019-05-01T04:10:29.263Z,18.30
2019-05-01T04:15:29.170Z,18.40
2019-05-01T04:20:30.156Z,22.63
2019-05-01T04:25:29.872Z,26.60
2019-05-01T04:30:57.583Z,20.37
2019-05-01T04:36:06.151Z,19.13
2019-05-01T04:41:06.247Z,20.80
2019-05-01T04:46:06.077Z,21.87
2019-05-01T04:51:06.028Z,20.87
2019-05-01T04:56:05.827Z,17.03
2019-05-01T05:01:05.646Z,16.10
2019-05-01T05:06:05.570Z,19.87
2019-05-01T05:11:10.783Z,15.97
2019-05-01T05:16:35.719Z,16.17
2019-05-01T05:21:35.910Z,14.33
2019-05-01T05:26:35.546Z,16.50
2019-05-01T05:31:37.127Z,15.90
2019-05-01T05:36:40.667Z,13.87
2019-05-01T05:41:40.847Z,12.40
2019-05-01T05:46:40.697Z,10.20
2019-05-01T05:51:48.719Z,12.00
2019-05-01T05:56:54.607Z,14.57
2019-05-01T06:02:10.291Z,13.47
2019-05-01T06:07:18.822Z,14.40
2019-05-01T06:12:32.399Z,12.70
2019-05-01T06:17:51.207Z,18.97
2019-05-01T06:23:08.350Z,12.23
2019-05-01T06:28:08.683Z,15.63
2019-05-01T06:33:09.433Z,11.83
2019-05-01T06:38:14.556Z,10.63
2019-05-01T06:43:56.979Z,7.13
2019-05-01T06:49:01.418Z,14.53
2019-05-01T06:54:01.518Z,9.97
2019-05-01T06:59:01.698Z,11.53
2019-05-01T07:04:03.812Z,9.90
2019-05-01T07:09:07.022Z,12.00
2019-05-01T07:14:11.010Z,8.57
2019-05-01T07:19:10.555Z,9.07
2019-05-01T07:24:10.357Z,9.93
2019-05-01T07:29:13.246Z,8.30
2019-05-01T07:34:16.739Z,10.90
2019-05-01T07:39:15.808Z,8.23
2019-05-01T07:44:34.983Z,8.57
2019-05-01T07:49:54.720Z,11.03
2019-05-01T07:54:56.579Z,7.43
2019-05-01T07:59:58.204Z,4.33
2019-05-01T08:04:58.286Z,8.90
2019-05-01T08:09:58.022Z,5.60
2019-05-01T08:14:57.755Z,10.50
2019-05-01T08:20:02.755Z,4.40
2019-05-01T08:25:02.414Z,5.87
2019-05-01T08:30:27.363Z,4.60
2019-05-01T08:35:31.834Z,5.30
2019-05-01T08:40:30.431Z,5.30
2019-05-01T08:45:43.575Z,7.30
2019-05-01T08:50:43.307Z,4.77
2019-05-01T08:55:44.998Z,7.03
2019-05-01T09:00:44.430Z,7.17
2019-05-01T09:05:44.453Z,5.63
2019-05-01T09:10:49.454Z,5.40
2019-05-01T09:15:49.396Z,5.50
2019-05-01T09:20:51.308Z,6.00
2019-05-01T09:26:16.689Z,4.90
2019-05-01T09:31:18.231Z,5.80
2019-05-01T09:36:17.971Z,6.53
2019-05-01T09:41:17.935Z,3.53
2019-05-01T09:46:17.727Z,4.70
2019-05-01T09:51:51.693Z,7.70
2019-05-01T09:56:52.572Z,5.97
2019-05-01T10:01:52.295Z,6.80
2019-05-01T10:06:54.015Z,4.20
2019-05-01T10:11:53.531Z,5.53
2019-05-01T10:16:53.231Z,4.17
2019-05-01T10:21:52.883Z,7.63
2019-05-01T10:26:55.267Z,5.43
2019-05-01T10:32:21.646Z,5.97
2019-05-01T10:37:19.170Z,8.13
2019-05-01T10:42:18.819Z,3.50
2019-05-01T10:47:18.534Z,4.60
2019-05-01T10:52:19.434Z,3.67
2019-05-01T10:57:19.176Z,4.33
2019-05-01T11:02:19.572Z,3.17
2019-05-01T11:07:19.297Z,6.27
2019-05-01T11:12:20.145Z,2.87
2019-05-01T11:17:19.955Z,6.13
2019-05-01T11:22:19.674Z,3.20
2019-05-01T11:27:19.755Z,5.97
2019-05-01T11:32:26.572Z,4.23
2019-05-01T11:37:57.710Z,6.83
2019-05-01T11:42:58.078Z,3.73
2019-05-01T11:47:57.999Z,4.93
2019-05-01T11:52:57.614Z,4.83
2019-05-01T11:57:57.386Z,5.00
2019-05-01T12:02:57.143Z,3.20
2019-05-01T12:07:56.791Z,5.67
2019-05-01T12:12:56.524Z,7.43
2019-05-01T12:17:56.227Z,5.53
2019-05-01T12:22:55.866Z,6.73
2019-05-01T12:27:55.700Z,8.07
2019-05-01T12:32:56.318Z,5.00
2019-05-01T12:37:58.407Z,4.90
2019-05-01T12:42:58.055Z,6.23
2019-05-01T12:48:02.911Z,6.17
2019-05-01T12:53:10.913Z,5.73
2019-05-01T12:58:10.571Z,5.97
2019-05-01T13:03:10.280Z,5.93
2019-05-01T13:08:11.336Z,7.13
2019-05-01T13:13:11.393Z,7.43
2019-05-01T13:18:12.043Z,7.70
2019-05-01T13:23:11.684Z,5.50
2019-05-01T13:28:26.201Z,4.47
2019-05-01T13:33:25.937Z,6.73
2019-05-01T13:38:26.551Z,5.57
2019-05-01T13:43:26.211Z,5.90
2019-05-01T13:48:27.173Z,9.43
2019-05-01T13:53:27.156Z,7.63
2019-05-01T13:58:26.894Z,9.90
2019-05-01T14:03:26.858Z,6.73
2019-05-01T14:08:26.695Z,5.00
2019-05-01T14:13:26.429Z,8.60
2019-05-01T14:18:26.127Z,6.47
2019-05-01T14:23:45.119Z,9.93
2019-05-01T14:28:44.847Z,7.47
2019-05-01T14:33:44.558Z,7.23
2019-05-01T14:38:44.306Z,6.63
2019-05-01T14:43:43.974Z,7.30
2019-05-01T14:48:44.758Z,6.17
2019-05-01T14:53:44.492Z,5.53
2019-05-01T14:58:44.154Z,8.13
2019-05-01T15:03:43.850Z,5.60
2019-05-01T15:08:43.486Z,4.67
2019-05-01T15:13:50.083Z,5.03
2019-05-01T15:19:04.527Z,6.87
2019-05-01T15:24:05.614Z,11.40
2019-05-01T15:29:05.414Z,4.97
2019-05-01T15:34:05.224Z,7.53
2019-05-01T15:39:09.098Z,6.93
2019-05-01T15:44:24.069Z,4.10
2019-05-01T15:49:23.759Z,6.67
2019-05-01T15:54:23.378Z,5.13
2019-05-01T15:59:23.392Z,4.77
2019-05-01T16:04:23.158Z,5.80
2019-05-01T16:09:22.999Z,6.20
2019-05-01T16:14:22.843Z,9.37
2019-05-01T16:19:22.903Z,7.60
2019-05-01T16:24:22.696Z,9.87
2019-05-01T16:29:22.343Z,10.30
2019-05-01T16:34:22.032Z,7.77
2019-05-01T16:39:52.899Z,10.20
2019-05-01T16:44:52.563Z,8.33
2019-05-01T16:49:52.234Z,9.00
2019-05-01T16:54:59.067Z,10.70
2019-05-01T16:59:53.563Z,8.80
2019-05-01T17:04:58.203Z,10.80
2019-05-01T17:10:10.390Z,11.93
2019-05-01T17:15:11.114Z,9.50
2019-05-01T17:20:11.207Z,12.00
2019-05-01T17:25:11.498Z,11.03
2019-05-01T17:30:17.213Z,12.43
2019-05-01T17:35:16.961Z,9.93
2019-05-01T17:40:16.746Z,11.73
2019-05-01T17:45:16.578Z,10.47
2019-05-01T17:50:21.012Z,6.90
2019-05-01T17:55:18.114Z,6.40
2019-05-01T18:00:35.480Z,9.17
2019-05-01T18:06:01.489Z,9.60
2019-05-01T18:10:58.788Z,10.03
2019-05-01T18:15:58.516Z,13.40
2019-05-01T18:20:58.138Z,15.77
2019-05-01T18:26:08.797Z,12.47
2019-05-01T18:31:10.670Z,8.40
2019-05-01T18:36:10.482Z,10.30
2019-05-01T18:41:17.390Z,10.60
2019-05-01T18:46:17.270Z,11.17
2019-05-01T18:51:17.601Z,8.20
2019-05-01T18:56:17.674Z,9.20
2019-05-01T19:01:17.842Z,9.13
2019-05-01T19:06:17.567Z,8.37
2019-05-01T19:11:18.700Z,12.63
2019-05-01T19:16:18.404Z,5.77
2019-05-01T19:21:23.607Z,7.53
2019-05-01T19:26:23.937Z,7.10
2019-05-01T19:31:24.627Z,10.60
2019-05-01T19:36:24.474Z,5.50
2019-05-01T19:41:25.187Z,7.30
2019-05-01T19:46:24.903Z,12.33
2019-05-01T19:51:26.052Z,8.00
2019-05-01T19:56:25.979Z,7.47
2019-05-01T20:01:25.654Z,9.93
2019-05-01T20:06:25.433Z,7.83
2019-05-01T20:11:25.237Z,10.90
2019-05-01T20:16:25.267Z,7.13
2019-05-01T20:21:25.252Z,8.77
2019-05-01T20:26:26.942Z,7.37
2019-05-01T20:31:28.236Z,5.57
2019-05-01T20:36:28.399Z,6.77
2019-05-01T20:41:28.103Z,6.73
2019-05-01T20:46:28.038Z,6.50
2019-05-01T20:51:27.938Z,10.80
2019-05-01T20:56:38.863Z,11.70
2019-05-01T21:01:38.735Z,6.07
2019-05-01T21:06:43.681Z,7.13
2019-05-01T21:11:47.279Z,12.47
2019-05-01T21:16:46.363Z,5.53
2019-05-01T21:21:46.005Z,9.67
2019-05-01T21:26:45.655Z,5.97
2019-05-01T21:31:45.375Z,8.87
2019-05-01T21:36:47.654Z,6.13
2019-05-01T21:41:46.448Z,7.70
2019-05-01T21:46:46.106Z,8.50
2019-05-01T21:51:46.288Z,7.20
2019-05-01T21:56:47.529Z,8.90
2019-05-01T22:01:47.398Z,9.90
2019-05-01T22:06:51.922Z,6.20
2019-05-01T22:11:48.766Z,10.20
2019-05-01T22:16:53.139Z,7.70
2019-05-01T22:22:10.222Z,7.70
2019-05-01T22:27:27.309Z,14.37
2019-05-01T22:32:33.958Z,6.30
2019-05-01T22:37:33.375Z,8.03
2019-05-01T22:42:33.182Z,5.70
2019-05-01T22:47:32.954Z,5.37
2019-05-01T22:52:33.090Z,6.07
2019-05-01T22:57:32.730Z,5.33
2019-05-01T23:02:38.139Z,9.03
2019-05-01T23:07:37.974Z,5.00
2019-05-01T23:12:37.976Z,7.90
2019-05-01T23:17:43.838Z,9.13
2019-05-01T23:22:43.529Z,6.50
2019-05-01T23:27:44.334Z,4.77
2019-05-01T23:32:44.391Z,5.50
2019-05-01T23:37:44.050Z,7.47
2019-05-01T23:42:52.329Z,7.10
2019-05-01T23:47:46.137Z,8.37
2019-05-01T23:52:45.774Z,8.17
2019-05-01T23:57:45.434Z,7.73
